createdAt,value
2017-07-17T19:14:58.633Z,73.00
2017-07-17T19:17:26.880Z,73.60
2017-07-17T19:19:55.084Z,74.20
2017-07-17T19:22:23.638Z,74.30
2017-07-17T19:24:51.843Z,74.90
2017-07-17T19:27:21.057Z,74.80
2017-07-17T19:29:49.322Z,74.80
2017-07-17T19:32:17.574Z,74.90
2017-07-17T19:34:45.942Z,74.70
2017-07-17T19:37:14.186Z,74.40
2017-07-17T19:39:42.532Z,74.60
2017-07-17T19:42:11.829Z,75.60
2017-07-17T19:44:40.843Z,75.80
2017-07-17T19:47:09.074Z,75.80
2017-07-17T19:49:37.295Z,76.10
2017-07-17T19:52:05.523Z,76.10
2017-07-17T19:54:33.753Z,76.30
2017-07-17T19:57:02.086Z,76.30
2017-07-17T19:59:30.313Z,76.90
2017-07-17T20:01:58.554Z,76.80
2017-07-17T20:04:26.950Z,76.60
2017-07-17T20:06:56.148Z,77.20
2017-07-17T20:09:24.420Z,77.10
2017-07-17T20:11:53.236Z,77.10
2017-07-17T20:14:21.470Z,77.40
2017-07-17T20:16:49.668Z,77.50
2017-07-17T20:19:17.972Z,77.60
2017-07-17T20:21:46.214Z,77.90
2017-07-17T20:24:14.493Z,77.80
2017-07-17T20:26:42.910Z,77.50
2017-07-17T20:29:11.370Z,77.20
2017-07-17T20:31:40.370Z,77.40
2017-07-17T20:34:08.746Z,77.20
2017-07-17T20:36:37.043Z,77.90
2017-07-17T20:39:05.290Z,78.40
2017-07-17T20:41:33.519Z,77.90
2017-07-17T20:44:01.875Z,77.20
2017-07-17T20:46:30.083Z,77.60
2017-07-17T20:48:58.582Z,78.10
2017-07-17T20:51:26.820Z,76.60
2017-07-17T20:53:55.078Z,76.40
2017-07-17T20:56:23.306Z,75.80
2017-07-17T20:58:51.718Z,76.30
2017-07-17T21:01:20.695Z,75.80
2017-07-17T21:03:48.949Z,75.70
2017-07-17T21:06:17.201Z,76.30
2017-07-17T21:08:45.992Z,75.40
2017-07-17T21:11:15.105Z,76.10
2017-07-17T21:13:43.339Z,76.60
2017-07-17T21:16:11.567Z,76.40
2017-07-17T21:18:39.925Z,77.90
2017-07-17T21:21:08.178Z,77.70
2017-07-17T21:23:36.451Z,77.70
2017-07-17T21:26:04.687Z,77.70
2017-07-17T21:28:32.917Z,77.40
2017-07-17T21:31:01.160Z,77.70
2017-07-17T21:33:29.563Z,77.70
2017-07-17T21:35:57.779Z,78.10
2017-07-17T21:38:26.033Z,78.20
2017-07-17T21:40:54.303Z,78.20
2017-07-17T21:43:22.885Z,78.30
2017-07-17T21:45:51.140Z,78.10
2017-07-17T21:48:20.119Z,78.10
2017-07-17T21:50:48.461Z,78.40
2017-07-17T21:53:16.661Z,78.60
2017-07-17T21:55:44.894Z,79.00
2017-07-17T21:58:13.319Z,79.40
2017-07-17T22:00:41.522Z,79.70
2017-07-17T22:03:09.762Z,80.10
2017-07-17T22:05:37.985Z,80.10
2017-07-17T22:08:06.967Z,80.30
2017-07-17T22:10:35.185Z,80.30
2017-07-17T22:13:03.436Z,80.10
2017-07-17T22:15:31.713Z,79.90
2017-07-17T22:17:59.965Z,80.20
2017-07-17T22:20:28.316Z,80.30
2017-07-17T22:22:56.525Z,81.20
2017-07-17T22:25:24.777Z,80.40
2017-07-17T22:27:53.105Z,80.70
2017-07-17T22:30:21.320Z,80.80
2017-07-17T22:32:49.557Z,80.90
2017-07-17T22:35:17.777Z,81.10
2017-07-17T22:37:46.003Z,81.60
2017-07-17T22:40:14.221Z,81.60
2017-07-17T22:42:42.450Z,81.90
2017-07-17T22:45:11.309Z,81.50
2017-07-17T22:47:39.529Z,82.20
2017-07-17T22:50:07.761Z,82.00
2017-07-17T22:52:36.024Z,82.40
2017-07-17T22:55:04.261Z,82.60
2017-07-17T22:57:33.277Z,82.80
2017-07-17T23:00:01.567Z,82.80
2017-07-17T23:02:29.774Z,82.80
2017-07-17T23:04:58.001Z,82.70
2017-07-17T23:07:26.301Z,82.80
2017-07-17T23:09:54.515Z,82.70
2017-07-17T23:12:22.755Z,82.60
2017-07-17T23:14:50.954Z,82.80
2017-07-17T23:17:19.170Z,82.70
2017-07-17T23:19:47.416Z,83.20
2017-07-17T23:22:15.730Z,83.40
2017-07-17T23:24:43.975Z,83.20
2017-07-17T23:27:12.182Z,83.10
2017-07-17T23:29:40.451Z,83.10
2017-07-17T23:32:09.122Z,83.00
2017-07-17T23:34:37.359Z,82.70
2017-07-17T23:37:05.573Z,82.40
2017-07-17T23:39:33.794Z,82.60
2017-07-17T23:42:02.018Z,82.60
2017-07-17T23:44:30.225Z,82.60
2017-07-17T23:46:58.571Z,82.60
2017-07-17T23:49:26.792Z,82.80
2017-07-17T23:51:55.000Z,82.90
2017-07-17T23:54:23.250Z,82.80
2017-07-17T23:56:51.525Z,82.70
2017-07-17T23:59:19.766Z,82.80
